Portada
METAR-TAF:

METAR-TAF

Aeropuertos :

Grazzanise, Italia

latitud: 41-03N, longitud: 014-04E, altitud: 9 m

Observación

El informe se hizo hace 44 minutos, a las 00:55 UTC
Viento 3 kt del este-noreste
Temperatura 15°C
Humedad 88%
Presión 1012 hPa
Visibilidad: 6000 m

METAR: LIRM 030055Z 07003KT 6000 NSC 15/13 Q1012 RMK FEW FEW200 VIS MIN 6000 WIND THR06 05004KT WHT

Hora: 03:39 (01:39 UTC)

Pronóstico

El informe se hizo hace 2 horas y 39 minutos, a las 23:00 UTC
Pronóstico válido del 03 a las 00 UTC al 03 a las 09 UTC
Viento 3 kt con dirección variable
Visibilidad 10 km o más
sin nubes por debajo de 1500 m y sin presencia de cumulonimbus.
Probabilidad 30% :
Temporalmente
del 03 a las 00 UTC al 03 a las 04 UTC
Visibilidad: 5000 m
neblina

TAF: LIRM 022300Z 0300/0309 VRB03KT CAVOK PROB30 TEMPO 0300/0304 5000 BR NSC

Observaciones y pronósticos meteorológicos de más de 4000 aeropuertos (mensajes METAR y TAF).

Los puntos amarillos y rojos representan las estaciones disponibles.

Ponga el ratón en el punto deseado para ver el nombre de la estación.

Haga clic para ver las observaciones y los pronósticos meteorológicos.

Para cambiar el mapa : haga clic en los botones verdes con una cruz de color negro para hacer un zoom, en el botón verde con un guión para alejar o en las flechas verdes para mapas adyacentes.


METAR-TAF: